createdAt,value
2019-04-28T00:01:33.317Z,31.40
2019-04-28T00:04:07.620Z,32.00
2019-04-28T00:06:41.861Z,30.43
2019-04-28T00:09:16.338Z,30.45
2019-04-28T00:11:51.615Z,31.27
2019-04-28T00:14:25.329Z,33.80
2019-04-28T00:16:58.893Z,30.50
2019-04-28T00:19:33.154Z,31.05
2019-04-28T00:22:08.874Z,33.88
2019-04-28T00:24:44.902Z,32.42
2019-04-28T00:27:19.110Z,36.28
2019-04-28T00:29:53.193Z,33.95
2019-04-28T00:32:27.654Z,33.00
2019-04-28T00:35:02.366Z,33.97
2019-04-28T00:37:39.604Z,33.40
2019-04-28T00:40:13.916Z,33.90
2019-04-28T00:42:47.520Z,34.18
2019-04-28T00:45:21.547Z,35.03
2019-04-28T00:47:55.737Z,34.13
2019-04-28T00:50:29.314Z,34.40
2019-04-28T00:53:02.844Z,34.57
2019-04-28T00:55:36.540Z,36.65
2019-04-28T00:58:10.899Z,35.90
2019-04-28T01:00:46.429Z,36.87
2019-04-28T01:03:21.502Z,35.13
2019-04-28T01:05:55.753Z,37.75
2019-04-28T01:08:30.881Z,36.85
2019-04-28T01:11:05.308Z,37.88
2019-04-28T01:13:41.571Z,37.03
2019-04-28T01:16:17.005Z,38.45
2019-04-28T01:18:57.734Z,39.20
2019-04-28T01:21:50.229Z,39.90
2019-04-28T01:24:23.877Z,38.20
2019-04-28T01:27:00.480Z,39.92
2019-04-28T01:29:34.694Z,38.58
2019-04-28T01:32:20.335Z,37.95
2019-04-28T01:34:54.409Z,35.95
2019-04-28T01:37:29.551Z,36.23
2019-04-28T01:40:04.509Z,35.30
2019-04-28T01:42:38.668Z,36.42
2019-04-28T01:45:12.400Z,35.57
2019-04-28T01:47:46.293Z,35.08
2019-04-28T01:50:20.425Z,34.10
2019-04-28T01:52:54.253Z,33.58
2019-04-28T01:55:29.621Z,31.05
2019-04-28T01:58:03.232Z,30.03
2019-04-28T02:00:36.924Z,27.67
2019-04-28T02:03:11.057Z,26.00
2019-04-28T02:05:44.589Z,25.70
2019-04-28T02:08:20.185Z,25.27
2019-04-28T02:10:54.696Z,25.27
2019-04-28T02:13:29.839Z,24.02
2019-04-28T02:16:03.548Z,23.97
2019-04-28T02:18:39.346Z,23.27
2019-04-28T02:21:19.531Z,23.85
2019-04-28T02:23:55.360Z,22.98
2019-04-28T02:26:29.629Z,22.05
2019-04-28T02:29:03.741Z,21.73
2019-04-28T02:31:37.828Z,22.62
2019-04-28T02:34:11.376Z,21.50
2019-04-28T02:36:44.954Z,20.70
2019-04-28T02:39:20.691Z,19.85
2019-04-28T02:41:54.933Z,20.93
2019-04-28T02:44:31.831Z,21.97
2019-04-28T02:47:03.977Z,20.72
2019-04-28T02:49:40.519Z,20.77
2019-04-28T02:52:30.596Z,20.73
2019-04-28T02:55:03.929Z,20.13
2019-04-28T02:57:40.418Z,18.73
2019-04-28T03:00:13.051Z,20.33
2019-04-28T03:02:46.993Z,20.80
2019-04-28T03:05:21.657Z,21.37
2019-04-28T03:07:55.524Z,20.43
2019-04-28T03:10:31.159Z,21.97
2019-04-28T03:13:04.546Z,21.97
2019-04-28T03:15:38.152Z,23.27
2019-04-28T03:18:11.866Z,21.40
2019-04-28T03:20:45.614Z,23.33
2019-04-28T03:23:20.654Z,22.00
2019-04-28T03:26:05.108Z,22.80
2019-04-28T03:28:55.968Z,22.13
2019-04-28T03:32:13.963Z,21.53
2019-04-28T03:34:25.616Z,23.00
2019-04-28T03:37:00.368Z,23.17
2019-04-28T03:39:34.128Z,23.60
2019-04-28T03:42:07.829Z,24.33
2019-04-28T03:44:41.705Z,23.97
2019-04-28T03:47:17.047Z,25.10
2019-04-28T03:49:50.917Z,22.37
2019-04-28T03:52:24.581Z,22.43
2019-04-28T03:55:00.377Z,21.90
2019-04-28T03:57:33.405Z,21.67
2019-04-28T04:00:10.999Z,21.60
2019-04-28T04:02:44.210Z,22.75
2019-04-28T04:05:20.581Z,20.53
2019-04-28T04:07:53.000Z,20.87
2019-04-28T04:10:44.328Z,20.60
2019-04-28T04:13:22.545Z,19.47
2019-04-28T04:15:57.832Z,20.80
2019-04-28T04:18:35.797Z,19.32
2019-04-28T04:21:11.128Z,17.87
2019-04-28T04:23:44.616Z,17.23
2019-04-28T04:26:21.022Z,18.50
2019-04-28T04:28:53.396Z,18.40
2019-04-28T04:31:27.255Z,18.85
2019-04-28T04:34:03.457Z,18.02
2019-04-28T04:36:36.769Z,17.97
2019-04-28T04:39:10.919Z,18.20
2019-04-28T04:41:44.624Z,18.47
2019-04-28T04:44:21.032Z,18.25
2019-04-28T04:46:54.854Z,17.80
2019-04-28T04:49:31.531Z,18.07
2019-04-28T04:52:04.973Z,17.20
2019-04-28T04:54:40.164Z,17.48
2019-04-28T04:57:13.844Z,17.23
2019-04-28T04:59:47.428Z,17.27
2019-04-28T05:02:33.120Z,16.23
2019-04-28T05:05:11.720Z,17.50
2019-04-28T05:07:43.711Z,15.88
2019-04-28T05:10:17.866Z,15.70
2019-04-28T05:12:52.587Z,15.53
2019-04-28T05:15:26.804Z,16.12
2019-04-28T05:18:00.404Z,16.12
2019-04-28T05:20:34.783Z,14.68
2019-04-28T05:23:19.696Z,14.15
2019-04-28T05:25:53.798Z,13.48
2019-04-28T05:28:31.920Z,15.08
2019-04-28T05:31:04.056Z,14.05
2019-04-28T05:33:39.576Z,13.83
2019-04-28T05:36:14.169Z,14.20
2019-04-28T05:38:49.655Z,14.47
2019-04-28T05:41:23.836Z,14.47
2019-04-28T05:43:59.625Z,15.18
2019-04-28T05:46:33.791Z,15.05
2019-04-28T05:49:12.487Z,14.28
2019-04-28T05:52:04.128Z,13.80
2019-04-28T05:54:49.615Z,13.95
2019-04-28T05:57:25.520Z,13.85
2019-04-28T06:00:03.729Z,13.80
2019-04-28T06:02:40.880Z,13.58
2019-04-28T06:05:15.405Z,14.10
2019-04-28T06:07:51.171Z,14.78
2019-04-28T06:10:25.464Z,14.03
2019-04-28T06:12:59.818Z,13.55
2019-04-28T06:15:34.087Z,14.23
2019-04-28T06:18:10.300Z,13.70
2019-04-28T06:20:44.184Z,14.45
2019-04-28T06:23:18.360Z,14.70
2019-04-28T06:25:52.569Z,14.90
2019-04-28T06:28:26.748Z,13.95
2019-04-28T06:31:01.214Z,14.63
2019-04-28T06:33:35.635Z,14.50
2019-04-28T06:36:10.091Z,14.38
2019-04-28T06:38:44.245Z,15.03
2019-04-28T06:41:18.458Z,13.93
2019-04-28T06:43:53.771Z,14.58
2019-04-28T06:46:27.886Z,14.20
2019-04-28T06:49:02.040Z,12.98
2019-04-28T06:51:36.159Z,13.88
2019-04-28T06:54:10.329Z,14.30
2019-04-28T06:56:44.582Z,13.50
2019-04-28T06:59:18.655Z,14.60
2019-04-28T07:01:52.779Z,15.13
2019-04-28T07:04:26.946Z,14.55
2019-04-28T07:07:01.076Z,14.43
2019-04-28T07:09:35.170Z,13.95
2019-04-28T07:12:09.566Z,13.85
2019-04-28T07:14:43.753Z,14.03
2019-04-28T07:17:17.933Z,13.30
2019-04-28T07:19:53.818Z,13.80
2019-04-28T07:22:32.341Z,13.53
2019-04-28T07:25:06.782Z,12.82
2019-04-28T07:27:40.937Z,13.30
2019-04-28T07:30:17.246Z,13.78
2019-04-28T07:32:51.454Z,13.10
2019-04-28T07:35:25.590Z,13.50
2019-04-28T07:37:59.747Z,13.58
2019-04-28T07:40:34.125Z,13.45
2019-04-28T07:43:08.429Z,14.05
2019-04-28T07:45:42.549Z,14.85
2019-04-28T07:48:16.945Z,13.90
2019-04-28T07:50:51.135Z,14.83
2019-04-28T07:53:29.961Z,13.25
2019-04-28T07:56:04.288Z,12.90
2019-04-28T07:58:38.485Z,13.85
2019-04-28T08:01:13.813Z,13.30
2019-04-28T08:03:49.626Z,13.18
2019-04-28T08:06:23.830Z,13.15
2019-04-28T08:08:57.921Z,12.03
2019-04-28T08:11:32.113Z,12.37
2019-04-28T08:14:06.217Z,12.13
2019-04-28T08:16:40.487Z,12.37
2019-04-28T08:19:14.669Z,13.70
2019-04-28T08:21:48.787Z,13.35
2019-04-28T08:24:23.245Z,12.60
2019-04-28T08:26:57.405Z,12.25
2019-04-28T08:29:31.894Z,11.90
2019-04-28T08:32:16.629Z,11.55
2019-04-28T08:34:51.375Z,11.55
2019-04-28T08:37:25.550Z,11.40
2019-04-28T08:39:59.741Z,11.73
2019-04-28T08:42:33.918Z,11.85
2019-04-28T08:45:09.343Z,13.48
2019-04-28T08:47:43.493Z,12.93
2019-04-28T08:50:17.774Z,14.35
2019-04-28T08:52:51.909Z,13.13
2019-04-28T08:55:26.094Z,12.80
2019-04-28T08:58:00.257Z,12.20
2019-04-28T09:00:34.457Z,13.45
2019-04-28T09:03:08.639Z,14.15
2019-04-28T09:05:42.911Z,14.00
2019-04-28T09:08:17.100Z,13.78
2019-04-28T09:10:51.276Z,15.08
2019-04-28T09:13:25.473Z,14.25
2019-04-28T09:15:59.577Z,14.23
2019-04-28T09:18:33.709Z,13.55
2019-04-28T09:21:07.802Z,13.22
2019-04-28T09:23:41.984Z,17.10
2019-04-28T09:26:16.385Z,14.93
2019-04-28T09:28:50.662Z,14.43
2019-04-28T09:31:24.897Z,14.73
2019-04-28T09:33:59.250Z,14.95
2019-04-28T09:36:33.498Z,14.40
2019-04-28T09:39:09.526Z,14.10
2019-04-28T09:41:48.101Z,15.48
2019-04-28T09:44:22.229Z,14.30
2019-04-28T09:46:56.388Z,15.70
2019-04-28T09:49:30.515Z,14.70
2019-04-28T09:52:07.716Z,14.38
2019-04-28T09:54:44.852Z,14.55
2019-04-28T09:57:19.332Z,14.50
2019-04-28T09:59:53.529Z,13.60
2019-04-28T10:02:27.633Z,14.38
2019-04-28T10:05:01.827Z,14.70
2019-04-28T10:07:36.057Z,15.03
2019-04-28T10:10:10.580Z,14.70
2019-04-28T10:12:44.828Z,12.75
2019-04-28T10:15:18.956Z,13.22
2019-04-28T10:17:53.232Z,13.75
2019-04-28T10:20:27.394Z,14.73
2019-04-28T10:23:01.508Z,14.78
2019-04-28T10:25:35.592Z,14.10
2019-04-28T10:28:09.856Z,13.20
2019-04-28T10:30:44.025Z,12.80
2019-04-28T10:33:18.148Z,13.25
2019-04-28T10:35:52.351Z,12.80
2019-04-28T10:38:26.581Z,12.33
2019-04-28T10:41:05.436Z,12.75
2019-04-28T10:43:39.672Z,12.20
2019-04-28T10:46:13.881Z,12.35
2019-04-28T10:48:48.302Z,12.75
2019-04-28T10:51:22.524Z,11.93
2019-04-28T10:53:56.682Z,18.00
2019-04-28T10:56:31.009Z,16.67
2019-04-28T10:59:05.261Z,13.98
2019-04-28T11:01:39.448Z,11.55
2019-04-28T11:04:31.256Z,13.15
2019-04-28T11:07:05.696Z,11.65
2019-04-28T11:09:47.216Z,11.08
2019-04-28T11:12:30.752Z,11.25
2019-04-28T11:15:08.633Z,11.08
2019-04-28T11:17:42.845Z,11.70
2019-04-28T11:20:17.097Z,11.45
2019-04-28T11:22:52.816Z,11.20
2019-04-28T11:25:26.935Z,11.80
2019-04-28T11:28:01.129Z,10.45
2019-04-28T11:30:35.411Z,11.60
2019-04-28T11:33:16.680Z,11.48
2019-04-28T11:35:51.575Z,11.50
2019-04-28T11:38:27.386Z,10.70
2019-04-28T11:41:01.645Z,10.93
2019-04-28T11:43:35.880Z,11.38
2019-04-28T11:46:12.001Z,11.65
2019-04-28T11:48:47.231Z,11.12
2019-04-28T11:51:21.426Z,11.78
2019-04-28T11:53:57.036Z,11.93
2019-04-28T11:56:40.726Z,11.43
2019-04-28T11:59:07.184Z,11.80
2019-04-28T12:01:41.374Z,11.48
2019-04-28T12:04:17.317Z,10.82
2019-04-28T12:06:51.681Z,10.40
2019-04-28T12:09:33.148Z,10.48
2019-04-28T12:12:09.144Z,10.98
2019-04-28T12:14:51.036Z,10.98
2019-04-28T12:17:44.971Z,9.75
2019-04-28T12:20:23.813Z,9.58
2019-04-28T12:22:58.080Z,10.58
2019-04-28T12:25:32.180Z,9.60
2019-04-28T12:28:06.532Z,9.88
2019-04-28T12:30:40.752Z,8.90
2019-04-28T12:33:15.199Z,9.63
2019-04-28T12:35:49.370Z,8.85
2019-04-28T12:38:23.545Z,8.60
2019-04-28T12:40:57.700Z,8.75
2019-04-28T12:43:31.903Z,7.95
2019-04-28T12:46:06.125Z,8.73
2019-04-28T12:48:40.319Z,8.95
2019-04-28T12:51:14.457Z,7.95
2019-04-28T12:53:50.269Z,8.70
2019-04-28T12:56:24.458Z,8.18
2019-04-28T12:59:00.243Z,7.55
2019-04-28T13:01:36.170Z,7.33
2019-04-28T13:04:11.941Z,7.80
2019-04-28T13:06:47.760Z,7.55
2019-04-28T13:09:22.188Z,6.65
2019-04-28T13:11:56.320Z,6.37
2019-04-28T13:14:30.446Z,6.08
2019-04-28T13:17:04.735Z,5.45
2019-04-28T13:19:38.977Z,5.50
2019-04-28T13:22:13.190Z,6.15
2019-04-28T13:24:47.366Z,5.10
2019-04-28T13:27:21.551Z,4.97
2019-04-28T13:29:55.984Z,4.70
2019-04-28T13:32:30.129Z,4.40
2019-04-28T13:35:05.432Z,4.35
2019-04-28T13:37:39.724Z,4.25
2019-04-28T13:40:21.816Z,4.30
2019-04-28T13:42:55.912Z,5.05
2019-04-28T13:45:30.537Z,4.67
2019-04-28T13:48:05.448Z,4.12
2019-04-28T13:50:39.899Z,4.40
2019-04-28T13:53:14.060Z,4.35
2019-04-28T13:55:49.884Z,3.90
2019-04-28T13:58:26.058Z,4.15
2019-04-28T14:01:17.912Z,4.72
2019-04-28T14:03:56.663Z,4.42
2019-04-28T14:06:35.400Z,4.17
2019-04-28T14:09:11.431Z,4.83
2019-04-28T14:11:45.852Z,4.72
2019-04-28T14:14:20.127Z,4.78
2019-04-28T14:16:54.311Z,4.05
2019-04-28T14:19:28.495Z,4.22
2019-04-28T14:22:02.748Z,4.25
2019-04-28T14:24:36.903Z,4.22
2019-04-28T14:27:11.073Z,4.17
2019-04-28T14:29:45.324Z,4.20
2019-04-28T14:32:19.488Z,4.75
2019-04-28T14:34:56.339Z,5.30
2019-04-28T14:37:30.533Z,4.50
2019-04-28T14:40:06.209Z,4.60
2019-04-28T14:42:40.295Z,5.03
2019-04-28T14:45:14.609Z,4.62
2019-04-28T14:47:48.749Z,4.75
2019-04-28T14:50:22.855Z,4.53
2019-04-28T14:52:56.986Z,4.55
2019-04-28T14:55:31.211Z,5.42
2019-04-28T14:58:05.419Z,5.10
2019-04-28T15:00:52.994Z,5.85
2019-04-28T15:03:28.831Z,6.25
2019-04-28T15:06:13.451Z,5.92
2019-04-28T15:08:56.234Z,5.72
2019-04-28T15:11:34.911Z,6.40
2019-04-28T15:14:09.056Z,5.92
2019-04-28T15:16:43.352Z,5.45
2019-04-28T15:19:17.480Z,4.45
2019-04-28T15:21:54.673Z,4.55
2019-04-28T15:24:28.858Z,5.33
2019-04-28T15:27:03.028Z,5.08
2019-04-28T15:29:37.224Z,4.92
2019-04-28T15:32:11.402Z,4.80
2019-04-28T15:34:45.585Z,4.50
2019-04-28T15:37:19.751Z,4.72
2019-04-28T15:39:54.502Z,4.03
2019-04-28T15:42:28.751Z,3.77
2019-04-28T15:45:03.037Z,4.25
2019-04-28T15:47:37.353Z,7.95
2019-04-28T15:50:11.735Z,4.60
2019-04-28T15:52:45.978Z,6.25
2019-04-28T15:55:24.226Z,5.00
2019-04-28T15:57:59.938Z,4.62
2019-04-28T16:00:34.038Z,4.05
2019-04-28T16:03:08.151Z,4.70
2019-04-28T16:05:42.294Z,4.05
2019-04-28T16:08:16.551Z,4.47
2019-04-28T16:10:50.691Z,3.72
2019-04-28T16:13:24.922Z,3.77
2019-04-28T16:15:59.060Z,3.47
2019-04-28T16:18:33.502Z,3.72
2019-04-28T16:21:07.712Z,3.90
2019-04-28T16:23:42.323Z,4.17
2019-04-28T16:26:16.466Z,4.58
2019-04-28T16:28:50.902Z,4.33
2019-04-28T16:31:26.341Z,4.17
2019-04-28T16:34:00.522Z,4.53
2019-04-28T16:36:34.738Z,4.00
2019-04-28T16:39:08.973Z,4.47
2019-04-28T16:41:46.390Z,3.90
2019-04-28T16:44:21.087Z,3.83
2019-04-28T16:46:55.154Z,3.92
2019-04-28T16:49:29.241Z,4.50
2019-04-28T16:52:03.571Z,4.45
2019-04-28T16:54:37.738Z,3.98
2019-04-28T16:57:13.538Z,4.37
2019-04-28T16:59:52.108Z,4.30
2019-04-28T17:02:33.718Z,4.60
2019-04-28T17:05:08.817Z,4.50
2019-04-28T17:07:52.332Z,4.47
2019-04-28T17:10:19.113Z,4.17
2019-04-28T17:12:53.244Z,4.87
2019-04-28T17:15:30.171Z,4.15
2019-04-28T17:18:03.383Z,4.20
2019-04-28T17:20:37.621Z,4.45
2019-04-28T17:23:11.815Z,4.45
2019-04-28T17:25:45.956Z,4.40
2019-04-28T17:28:23.147Z,4.83
2019-04-28T17:30:57.342Z,4.40
2019-04-28T17:33:31.514Z,4.22
2019-04-28T17:36:05.698Z,4.28
2019-04-28T17:38:39.906Z,4.85
2019-04-28T17:41:14.155Z,4.17
2019-04-28T17:43:48.317Z,3.95
2019-04-28T17:46:22.564Z,4.35
2019-04-28T17:49:00.694Z,4.40
2019-04-28T17:51:34.971Z,4.53
2019-04-28T17:54:09.223Z,4.53
2019-04-28T17:56:43.366Z,4.50
2019-04-28T17:59:18.523Z,5.08
2019-04-28T18:01:54.401Z,5.58
2019-04-28T18:04:43.298Z,4.97
2019-04-28T18:07:31.233Z,4.50
2019-04-28T18:10:08.302Z,4.47
2019-04-28T18:12:42.618Z,4.97
2019-04-28T18:15:22.935Z,4.90
2019-04-28T18:18:10.785Z,5.30
2019-04-28T18:20:44.970Z,5.35
2019-04-28T18:23:19.418Z,5.35
2019-04-28T18:25:53.724Z,5.20
2019-04-28T18:28:27.875Z,5.17
2019-04-28T18:31:06.494Z,6.05
2019-04-28T18:33:58.391Z,5.40
2019-04-28T18:36:34.174Z,6.35
2019-04-28T18:39:27.071Z,5.25
2019-04-28T18:42:02.885Z,5.45
2019-04-28T18:44:37.017Z,4.95
2019-04-28T18:47:11.625Z,5.58
2019-04-28T18:49:46.085Z,5.80
2019-04-28T18:52:20.302Z,5.17
2019-04-28T18:54:54.474Z,5.37
2019-04-28T18:57:28.628Z,5.10
2019-04-28T19:00:02.235Z,5.10
2019-04-28T19:02:43.082Z,4.77
2019-04-28T19:05:17.066Z,5.63
2019-04-28T19:08:03.738Z,5.93
2019-04-28T19:10:44.870Z,4.77
2019-04-28T19:13:22.921Z,5.10
2019-04-28T19:16:04.016Z,5.03
2019-04-28T19:18:39.832Z,4.97
2019-04-28T19:21:15.169Z,5.20
2019-04-28T19:23:48.714Z,5.40
2019-04-28T19:26:22.308Z,5.97
2019-04-28T19:28:55.805Z,5.70
2019-04-28T19:31:29.341Z,5.93
2019-04-28T19:34:04.142Z,5.70
2019-04-28T19:36:37.733Z,5.97
2019-04-28T19:39:11.940Z,5.60
2019-04-28T19:41:46.365Z,6.08
2019-04-28T19:44:20.158Z,6.20
2019-04-28T19:46:53.690Z,6.40
2019-04-28T19:49:27.386Z,6.28
2019-04-28T19:52:01.823Z,6.65
2019-04-28T19:54:37.057Z,6.00
2019-04-28T19:57:13.112Z,6.50
2019-04-28T20:00:03.207Z,7.20
2019-04-28T20:02:37.313Z,6.33
2019-04-28T20:05:10.973Z,6.83
2019-04-28T20:07:44.572Z,7.63
2019-04-28T20:10:18.145Z,7.90
2019-04-28T20:12:51.673Z,9.60
2019-04-28T20:15:25.237Z,8.47
2019-04-28T20:17:58.858Z,8.23
2019-04-28T20:20:32.501Z,7.07
2019-04-28T20:23:06.097Z,8.50
2019-04-28T20:25:40.257Z,7.37
2019-04-28T20:28:13.790Z,8.10
2019-04-28T20:30:47.336Z,6.87
2019-04-28T20:33:20.916Z,8.17
2019-04-28T20:35:57.128Z,8.17
2019-04-28T20:38:32.337Z,7.87
2019-04-28T20:41:22.583Z,7.40
2019-04-28T20:43:56.793Z,8.17
2019-04-28T20:46:30.314Z,7.67
2019-04-28T20:49:03.995Z,8.43
2019-04-28T20:51:37.570Z,8.00
2019-04-28T20:54:11.520Z,8.50
2019-04-28T20:56:45.088Z,8.80
2019-04-28T20:59:18.684Z,9.23
2019-04-28T21:01:52.248Z,8.10
2019-04-28T21:04:25.776Z,9.03
2019-04-28T21:06:59.380Z,8.80
2019-04-28T21:09:33.153Z,8.17
2019-04-28T21:12:06.824Z,9.00
2019-04-28T21:14:41.365Z,9.10
2019-04-28T21:17:14.885Z,9.53
2019-04-28T21:19:48.486Z,9.93
2019-04-28T21:22:22.077Z,9.20
2019-04-28T21:24:55.625Z,9.40
2019-04-28T21:27:29.197Z,10.57
2019-04-28T21:30:02.875Z,9.80
2019-04-28T21:32:36.524Z,9.00
2019-04-28T21:35:10.546Z,9.23
2019-04-28T21:37:44.075Z,9.63
2019-04-28T21:40:18.648Z,9.83
2019-04-28T21:42:53.781Z,9.63
2019-04-28T21:45:34.727Z,8.90
2019-04-28T21:48:08.668Z,9.37
2019-04-28T21:50:42.268Z,9.60
2019-04-28T21:53:15.765Z,9.00
2019-04-28T21:55:49.357Z,9.50
2019-04-28T21:58:32.958Z,9.57
2019-04-28T22:00:58.641Z,9.00
2019-04-28T22:03:32.587Z,9.27
2019-04-28T22:06:06.186Z,9.03
2019-04-28T22:08:39.806Z,8.47
2019-04-28T22:11:13.444Z,8.03
2019-04-28T22:13:46.982Z,9.00
2019-04-28T22:16:20.561Z,8.40
2019-04-28T22:18:54.157Z,7.60
2019-04-28T22:21:27.657Z,7.77
2019-04-28T22:24:19.130Z,7.43
2019-04-28T22:26:54.505Z,7.10
2019-04-28T22:29:29.300Z,6.40
2019-04-28T22:32:03.108Z,6.87
2019-04-28T22:34:36.713Z,7.37
2019-04-28T22:37:10.281Z,5.93
2019-04-28T22:39:46.961Z,6.30
2019-04-28T22:42:19.157Z,6.27
2019-04-28T22:44:52.952Z,6.37
2019-04-28T22:47:26.575Z,6.17
2019-04-28T22:50:00.118Z,6.30
2019-04-28T22:52:33.675Z,6.73
2019-04-28T22:55:11.984Z,7.10
2019-04-28T22:57:50.463Z,6.78
2019-04-28T23:00:35.406Z,7.10
2019-04-28T23:03:11.053Z,7.60
2019-04-28T23:05:44.813Z,7.53
2019-04-28T23:08:18.446Z,7.93
2019-04-28T23:10:51.964Z,7.73
2019-04-28T23:13:25.873Z,7.97
2019-04-28T23:15:59.465Z,8.43
2019-04-28T23:18:32.997Z,8.60
2019-04-28T23:21:20.303Z,10.17
2019-04-28T23:23:53.971Z,9.80
2019-04-28T23:26:27.571Z,10.90
2019-04-28T23:29:01.377Z,11.77
2019-04-28T23:31:34.963Z,12.47
2019-04-28T23:34:08.558Z,12.83
2019-04-28T23:36:42.051Z,13.77
2019-04-28T23:39:15.645Z,14.10
2019-04-28T23:42:02.616Z,14.00
2019-04-28T23:44:37.651Z,13.20
2019-04-28T23:47:11.322Z,14.37
2019-04-28T23:49:44.922Z,15.27
2019-04-28T23:52:38.299Z,15.27
2019-04-28T23:55:13.304Z,13.97
2019-04-28T23:57:46.889Z,15.60
